LYBE/BEG METAR and TAF weather

Enter ICAO airport designator
Station Type Date Time Source
LYBE METAR 2017/11/22 06:30 UTC NOAA

LYBE 220630Z 20009KT CAVOK 07/02 Q1018 NOSIG


Station Type Date Time Source
LYBE Decoded METAR 2017/11/22 06:30 UTC NOAA

Beograd / Surcin, Serbia and Montenegro (LYBE) 44-49N 020-17E 99M
Nov 22, 2017 - 01:30 AM EST / 2017.11.22 0630 UTC
Wind: from the SSW (200 degrees) at 10 MPH (9 KT):0
Visibility: greater than 7 mile(s):0
Temperature: 44 F (7 C)
Dew Point: 35 F (2 C)
Relative Humidity: 70%
Pressure (altimeter): 30.06 in. Hg (1018 hPa)
ob: LYBE 220630Z 20009KT CAVOK 07/02 Q1018 NOSIG
cycle: 6

Station Type Date Time Source
LYBE TAF 2017/11/22 06:21 UTC NOAA

TAF TAF LYBE 220500Z 2206/2306 22006KT 9999 SCT040 TX15/2213Z TN06/2305Z
TEMPO 2304/2306 5000 BR


Example: see airport list